createdAt,value
2022-12-13T06:16:58.065Z,-8.37
2022-12-13T06:26:57.820Z,-8.46
2022-12-13T06:36:57.972Z,-8.62
2022-12-13T06:47:11.145Z,-8.59
2022-12-13T06:56:58.057Z,-8.64
2022-12-13T07:07:01.853Z,-8.75
2022-12-13T07:17:03.105Z,-8.74
2022-12-13T07:26:57.979Z,-8.79
2022-12-13T07:36:58.075Z,-8.87
2022-12-13T07:46:58.055Z,-8.81
2022-12-13T07:57:02.748Z,-8.77
2022-12-13T08:06:57.900Z,-8.59
2022-12-13T08:16:58.019Z,-8.26
2022-12-13T08:26:57.922Z,-7.51
2022-12-13T08:37:01.534Z,-6.99
2022-12-13T08:46:58.151Z,-6.83
2022-12-13T08:56:58.034Z,-6.40
2022-12-13T09:06:58.003Z,-5.63
2022-12-13T09:17:02.878Z,-5.58
2022-12-13T09:26:58.021Z,-5.75
2022-12-13T09:37:01.364Z,-6.13
2022-12-13T09:47:00.963Z,-5.41
2022-12-13T09:56:58.040Z,-5.04
2022-12-13T10:06:58.110Z,-4.82
2022-12-13T10:16:58.272Z,-4.19
2022-12-13T10:26:57.985Z,-4.08
2022-12-13T10:36:59.609Z,-3.76
2022-12-13T10:46:57.981Z,-3.59
2022-12-13T10:56:58.021Z,-3.46
2022-12-13T11:06:58.129Z,-3.62
2022-12-13T11:16:58.042Z,-3.86
2022-12-13T11:26:58.059Z,-3.81
2022-12-13T11:36:58.070Z,-3.51
2022-12-13T11:46:58.158Z,-3.47
2022-12-13T11:57:00.229Z,-3.11
2022-12-13T12:07:04.976Z,-2.98
2022-12-13T12:16:58.083Z,-2.93
2022-12-13T12:26:57.912Z,-2.64
2022-12-13T12:36:58.052Z,-1.99
2022-12-13T12:47:18.910Z,-1.19
2022-12-13T12:56:58.068Z,-1.20
2022-12-13T13:07:01.755Z,-1.56
2022-12-13T13:16:57.922Z,-1.88
2022-12-13T13:26:57.971Z,-2.30
2022-12-13T13:36:58.044Z,-2.28
2022-12-13T13:46:57.952Z,-2.04
2022-12-13T13:56:58.001Z,-2.14
2022-12-13T14:07:01.143Z,-2.18
2022-12-13T14:16:57.940Z,-2.70
2022-12-13T14:26:57.986Z,-2.99
2022-12-13T14:36:57.996Z,-3.21
2022-12-13T14:46:58.197Z,-3.79
2022-12-13T14:56:57.970Z,-4.29
2022-12-13T15:06:58.033Z,-5.13
2022-12-13T15:16:58.001Z,-5.56
2022-12-13T15:26:58.203Z,-5.58
2022-12-13T15:36:58.059Z,-5.59
2022-12-13T15:46:57.980Z,-5.89
2022-12-13T15:56:58.153Z,-6.16
2022-12-13T16:06:58.290Z,-6.05
2022-12-13T16:16:58.188Z,-6.16
2022-12-13T16:26:58.003Z,-6.12
2022-12-13T16:36:58.049Z,-6.04
2022-12-13T16:47:18.117Z,-5.99
2022-12-13T16:56:58.012Z,-5.70
2022-12-13T17:06:58.197Z,-5.62
2022-12-13T17:16:58.144Z,-5.17
2022-12-13T17:26:58.175Z,-5.74
2022-12-13T17:36:58.074Z,-5.42
2022-12-13T17:46:58.190Z,-5.48
2022-12-13T17:56:58.159Z,-5.35
2022-12-13T18:06:58.075Z,-5.82
2022-12-13T18:16:58.142Z,-5.94
2022-12-13T18:26:58.267Z,-6.76
2022-12-13T18:36:58.488Z,-7.45
2022-12-13T18:46:58.554Z,-7.98
2022-12-13T18:56:58.732Z,-8.33
2022-12-13T19:06:58.725Z,-7.95
2022-12-13T19:16:58.912Z,-7.17
